Terminal Aerodrome Forecast
Issued by NWS St Louis, MO

Home | Current Version | Previous Version | Text Only | Print | Product List | Glossary On
Versions: 1 2 3 4 5 6 7 8 9 10 11 12 13 14 15 16 17 18 19 20 21 22 23 24 25 26 27 28 29 30 31 32 33
000
FTUS43 KLSX 270551 AAA
TAFCOU
TAF AMD
KCOU 270551Z 2706/2806 07012KT P6SM BKN060 OVC120
      TEMPO 2706/2707 3SM TSRA BKN050CB
     FM271200 15008KT P6SM BKN080
     FM271500 15010KT 6SM -SHRA VCTS SCT030CB OVC080
     FM272100 18014KT P6SM VCTS BKN040CB
     FM280000 17010KT P6SM BKN050=

USA.gov is the U.S. government's official web portal to all federal, state and local government web resources and services.